• Join FlightAware (Why Join?)
  • Login
  • US Flag 
01:27AM EDT


 

Airport Tracker/Info


-or-


 

Live Flight TrackerFlight Track Log ✈ JBU348 ✈ 26-Apr-2013 ✈ KSRQ - KJFK

Flight Track Log - Related Links

Times and Time Zones

All times are in EDT time to prevent confusion due to time zone crossing. See the JBU348 flight status page for this flight to view local times or setup timezone preferences in your user account.

Time Position Orientation Groundspeed Altitude Reporting Facility
EDT Latitude Longitude Course Direction KTS MPH feet Rate Location/Type
07:47PM 27.4167 -82.5667 North 169 194 900  Level Tampa TRACON
07:48PM 27.4000 -82.6333 254° West 205 236 2,200 1,800 Climbing Tampa TRACON
07:49PM 27.4000 -82.7000 270° West 246 283 4,600 2,580 Climbing Tampa TRACON
07:50PM 27.6745 -82.7833 North  Level FlightAware Approximate
07:50PM 27.4500 -82.7667 310° West 280 322 7,400  Level Tampa TRACON
07:51PM 27.7867 -82.7833 360° North  Level FlightAware Approximate
07:52PM 27.8988 -82.7833 North  Level FlightAware Approximate
07:52PM 27.6067 -82.7894 353° North 282 325 12,000  Level Miami Center
07:54PM 27.7661 -82.7894 360° North 340 391 15,700 2,100 Climbing Jacksonville Center
07:55PM 27.8808 -82.7892 360° North 352 405 17,600 1,680 Climbing Jacksonville Center
07:56PM 27.9914 -82.7892 360° North 380 437 19,100 1,200 Climbing Jacksonville Center
07:57PM 28.1081 -82.7892 360° North 399 459 20,000 420 Climbing Jacksonville Center
07:58PM 28.2231 -82.7889 360° North 404 465 20,000 480 Level Jacksonville Center
07:59PM 28.3336 -82.7864 North 399 459 21,000 1,200 Climbing Jacksonville Center
08:00PM 28.4503 -82.7839 North 405 466 22,500 1,500 Climbing Jacksonville Center
08:01PM 28.5672 -82.7719 North 411 473 24,000 1,560 Climbing Jacksonville Center
08:02PM 28.6903 -82.7578 North 422 486 25,700 1,380 Climbing Jacksonville Center
08:03PM 28.7967 -82.7506 North 429 494 26,800 1,140 Climbing Jacksonville Center
08:04PM 28.9200 -82.7383 North 429 494 28,000 1,200 Climbing Jacksonville Center
08:05PM 29.0431 -82.7286 North 435 501 29,200 1,140 Climbing Jacksonville Center
08:06PM 29.1683 -82.7167 North 440 506 30,300 1,080 Climbing Jacksonville Center
08:07PM 29.2914 -82.7044 North 440 506 31,400 960 Climbing Jacksonville Center
08:08PM 29.4167 -82.6947 North 440 506 32,300 1,200 Climbing Jacksonville Center
08:09PM 29.5522 -82.6944 360° North 442 509 33,800 840 Climbing Jacksonville Center
08:10PM 29.6733 -82.6942 360° North 427 491 34,000 60 Climbing Jacksonville Center
08:11PM 29.7903 -82.6533 17° North 427 491 34,000  Level Jacksonville Center
08:12PM 29.8944 -82.6028 23° Northeast 445 512 34,000 360 Level Jacksonville Center
08:13PM 30.0133 -82.5639 16° North 445 512 34,800 720 Climbing Jacksonville Center
08:14PM 30.1450 -82.5300 13° North 440 506 35,500 600 Climbing Jacksonville Center
08:15PM 30.2658 -82.4933 15° North 435 501 36,100 540 Climbing Jacksonville Center
08:16PM 30.3806 -82.4400 22° Northeast 435 501 36,600 420 Climbing Jacksonville Center
08:17PM 30.4931 -82.3792 25° Northeast 447 514 37,000 180 Climbing Jacksonville Center
08:18PM 30.6097 -82.3156 25° Northeast 452 520 37,000  Level Jacksonville Center
08:19PM 30.7097 -82.2594 26° Northeast 452 520 37,000  Level Jacksonville Center
08:20PM 30.8242 -82.1958 26° Northeast 447 514 37,000  Level Jacksonville Center
08:21PM 30.9367 -82.1344 25° Northeast 442 509 37,000  Level Jacksonville Center
08:22PM 31.0489 -82.0656 28° Northeast 442 509 37,000  Level Jacksonville Center
08:23PM 31.1483 -81.9678 40° Northeast 450 518 37,000  Level Jacksonville Center
08:24PM 31.2458 -81.8672 41° Northeast 456 525 37,000  Level Jacksonville Center
08:25PM 31.3453 -81.7686 40° Northeast 463 533 37,000  Level Jacksonville Center
08:26PM 31.4383 -81.6653 43° Northeast 463 533 37,000  Level Jacksonville Center
08:27PM 31.5456 -81.5592 40° Northeast 463 533 37,000  Level Jacksonville Center
08:28PM 31.6344 -81.4675 41° Northeast 463 533 37,000  Level Jacksonville Center
08:29PM 31.7417 -81.3583 41° Northeast 463 533 37,000  Level Jacksonville Center
08:30PM 31.8386 -81.2589 41° Northeast 463 533 37,000  Level Jacksonville Center
08:31PM 31.9272 -81.1694 41° Northeast 463 533 37,000  Level Jacksonville Center
08:32PM 32.0300 -81.0569 43° Northeast 457 526 37,000  Level Jacksonville Center
08:33PM 32.1206 -80.9694 39° Northeast 457 526 37,000  Level Jacksonville Center
08:34PM 32.2253 -80.8617 41° Northeast 457 526 37,000  Level Jacksonville Center
08:35PM 32.3178 -80.7661 41° Northeast 451 519 37,000  Level Jacksonville Center
08:36PM 32.4017 -80.6731 43° Northeast 451 519 37,000  Level Jacksonville Center
08:37PM 32.4939 -80.5772 41° Northeast 451 519 37,000  Level Jacksonville Center
08:38PM 32.5881 -80.4764 42° Northeast 451 519 37,000  Level Jacksonville Center
08:39PM 32.6822 -80.3775 41° Northeast 451 519 37,000  Level Jacksonville Center
08:40PM 32.7742 -80.2811 41° Northeast 451 519 37,000  Level Jacksonville Center
08:41PM 32.8661 -80.1794 43° Northeast 451 519 37,000  Level Jacksonville Center
08:42PM 32.9681 -80.0675 43° Northeast 451 519 37,000  Level Jacksonville Center
08:43PM 33.0597 -79.9706 42° Northeast 451 519 37,000  Level Jacksonville Center
08:44PM 33.1514 -79.8781 40° Northeast 441 507 37,000  Level Jacksonville Center
08:45PM 33.2428 -79.7783 42° Northeast 441 507 37,000  Level Jacksonville Center
08:46PM 33.3322 -79.6831 42° Northeast 436 502 37,000  Level Jacksonville Center
08:47PM 33.4258 -79.5828 42° Northeast 436 502 37,000  Level Jacksonville Center
08:48PM 33.5150 -79.4847 43° Northeast 436 502 37,000  Level Jacksonville Center
08:49PM 33.6042 -79.3864 43° Northeast 436 502 37,000  Level Jacksonville Center
08:50PM 33.6931 -79.2856 43° Northeast 436 502 37,000  Level Jacksonville Center
08:51PM 33.7700 -79.2025 42° Northeast 424 488 37,000  Level Jacksonville Center
08:52PM 33.8631 -79.1061 41° Northeast 424 488 37,000  Level Jacksonville Center
08:54PM 34.0853 -78.8717 41° Northeast 435 501 37,000  Level Washington Center
08:55PM 34.1772 -78.7800 40° Northeast 440 506 37,000  Level Washington Center
08:56PM 34.2717 -78.6856 40° Northeast 450 518 37,000  Level Washington Center
08:57PM 34.3681 -78.5911 39° Northeast 455 524 37,000  Level Washington Center
08:58PM 34.4619 -78.4989 39° Northeast 455 524 37,000  Level Washington Center
08:59PM 34.5456 -78.4083 42° Northeast 442 509 37,000  Level Washington Center
09:00PM 34.6236 -78.2772 54° Northeast 436 502 37,000  Level Washington Center
09:01PM 34.6294 -78.1058 88° East 453 521 37,000  Level Washington Center
09:02PM 34.6353 -77.9219 88° East 468 539 37,000  Level Washington Center
09:03PM 34.6344 -77.7503 90° East 491 565 37,000  Level Washington Center
09:04PM 34.6353 -77.5836 90° East 496 571 37,000  Level Washington Center
09:05PM 34.6336 -77.4144 91° East 496 571 37,000  Level Washington Center
09:06PM 34.6878 -77.2742 65° Northeast 471 542 37,000  Level Washington Center
09:07PM 34.7847 -77.2031 31° Northeast 388 447 37,000  Level Washington Center
09:08PM 34.8731 -77.1567 23° Northeast 375 432 37,000  Level Washington Center
09:09PM 34.9886 -77.1056 20° North 375 432 37,000  Level Washington Center
09:10PM 35.0892 -77.0542 23° Northeast 389 448 37,000  Level Washington Center
09:11PM 35.1775 -77.0050 24° Northeast 389 448 37,000  Level Washington Center
09:12PM 35.2783 -76.9533 23° Northeast 389 448 37,000  Level Washington Center
09:13PM 35.3747 -76.9039 23° Northeast 389 448 37,000  Level Washington Center
09:14PM 35.4775 -76.8519 22° Northeast 389 448 37,000  Level Washington Center
09:15PM 35.5783 -76.7975 24° Northeast 389 448 37,000  Level Washington Center
09:16PM 35.6789 -76.7428 24° Northeast 389 448 37,000  Level Washington Center
09:17PM 35.7817 -76.6903 23° Northeast 389 448 37,000  Level Washington Center
09:18PM 35.8844 -76.6381 22° Northeast 394 453 37,000  Level Washington Center
09:19PM 35.9850 -76.5856 23° Northeast 394 453 37,000  Level Washington Center
09:20PM 36.0856 -76.5328 23° Northeast 394 453 37,000  Level Washington Center
09:21PM 36.1883 -76.4772 24° Northeast 394 453 37,000  Level Washington Center
09:22PM 36.2908 -76.4244 23° Northeast 394 453 37,000  Level Washington Center
09:23PM 36.3933 -76.3711 23° Northeast 394 453 37,000  Level Washington Center
09:24PM 36.4961 -76.3181 23° Northeast 394 453 37,000  Level Washington Center
09:25PM 36.5964 -76.2644 23° Northeast 394 453 37,000  Level Washington Center
09:26PM 36.7072 -76.2058 23° Northeast 394 453 37,000  Level Washington Center
09:27PM 36.8139 -76.1444 25° Northeast 399 459 37,000  Level Washington Center
09:28PM 36.9144 -76.0906 23° Northeast 394 453 37,000  Level Washington Center
09:29PM 37.0231 -76.0367 22° Northeast 402 463 37,000  Level Washington Center
09:30PM 37.1256 -75.9800 24° Northeast 407 468 37,000  Level Washington Center
09:31PM 37.2300 -75.9231 23° Northeast 407 468 37,000  Level Washington Center
09:32PM 37.3322 -75.8661 24° Northeast 407 468 37,000  Level Washington Center
09:33PM 37.4367 -75.8117 22° Northeast 402 463 37,000  Level Washington Center
09:34PM 37.5411 -75.7517 24° Northeast 402 463 37,000  Level Washington Center
09:35PM 37.6475 -75.6942 23° Northeast 397 457 37,000  Level Washington Center
09:36PM 37.7539 -75.6364 23° Northeast 397 457 37,000  Level Washington Center
09:37PM 37.8583 -75.5786 24° Northeast 397 457 37,000  Level Washington Center
09:38PM 37.9625 -75.5233 23° Northeast 397 457 37,000  Level Washington Center
09:39PM 38.0667 -75.4653 24° Northeast 402 463 37,000 -60 Level Washington Center
09:40PM 38.1689 -75.3989 27° Northeast 402 463 36,900 -540 Descending Washington Center
09:41PM 38.2728 -75.3300 27° Northeast 402 463 36,000 -1,020 Descending Washington Center
09:42PM 38.3750 -75.2581 29° Northeast 407 468 35,000 -540 Descending Washington Center
09:43PM 38.4853 -75.1964 24° Northeast 407 468 35,000  Level Washington Center
09:44PM 38.5892 -75.1347 25° Northeast 413 475 35,000  Level Washington Center
09:45PM 38.6931 -75.0597 29° Northeast 413 475 35,000  Level Washington Center
09:46PM 38.8011 -74.9922 26° Northeast 418 481 35,000 -420 Level Washington Center
09:47PM 38.9092 -74.9247 26° Northeast 423 487 34,200 -1,560 Descending Washington Center
09:48PM 39.0131 -74.8569 27° Northeast 423 487 31,900 -2,340 Descending Washington Center
09:49PM 39.1189 -74.7756 31° Northeast 423 487 29,600 -2,400 Descending Washington Center
09:51PM 39.3144 -74.5678 39° Northeast 450 518 24,800 -2,460 Descending New York Center
09:52PM 39.4053 -74.4653 41° Northeast 450 518 22,400 -2,340 Descending New York Center
09:53PM 39.4961 -74.3650 40° Northeast 439 505 20,200 -2,220 Descending New York Center
09:54PM 39.5864 -74.2700 39° Northeast 419 482 18,000 -1,740 Descending New York Center
09:55PM 39.6683 -74.1797 40° Northeast 404 465 16,800 -1,560 Descending New York Center
09:56PM 39.7522 -74.0892 40° Northeast 391 450 15,000 -1,800 Descending New York Center
09:57PM 39.8211 -74.0114 41° Northeast 373 429 13,200 -1,800 Descending New York Center
09:58PM 39.9064 -73.9450 31° Northeast 360 414 11,500 -1,140 Descending New York Center
09:59PM 39.9933 -73.8814 29° Northeast 332 382 11,000 -300 Descending New York Center
10:00PM 40.0614 -73.8303 30° Northeast 302 348 11,000 -240 Level New York Center
10:01PM 40.1297 -73.7733 32° Northeast 289 333 10,600 -720 Descending New York Center
10:01PM 40.1500 -73.7500 41° Northeast 290 334 10,000 -1,320 Descending New York TRACON
10:02PM 40.2333 -73.7000 25° Northeast 278 320 8,800 -1,380 Descending New York TRACON
10:03PM 40.3000 -73.6500 30° Northeast 267 307 7,300 -1,680 Descending New York TRACON
10:04PM 40.3667 -73.6167 21° North 261 300 5,500 -1,740 Descending New York TRACON
10:05PM 40.3947 -73.5889 37° Northeast 264 304 4,600 -1,140 Descending New York Center
10:05PM 40.4333 -73.5667 24° Northeast 252 290 4,400 -720 Descending New York TRACON
10:06PM 40.4833 -73.5667 360° North 214 246 3,600 -960 Descending New York TRACON
10:07PM 40.5500 -73.5833 349° North 217 250 2,500 -840 Descending New York TRACON
10:08PM 40.5833 -73.6333 311° West 197 227 2,000 -600 Descending New York TRACON
10:09PM 40.6167 -73.6833 311° West 160 184 1,300 -720 Descending New York TRACON
10:10PM 40.6333 -73.7333 294° West 129 148 600 -720 Descending New York TRACON
10:12PM 40.6333 -73.7667 309° West  Level FlightAware Approximate
10:19PM 40.6398 -73.7789 309° West  Level Estimated
10:20PM 40.6398 -73.7789 309° West  Level Estimated